Time;durP1;ratioP1;P1;durP2;ratioP2;P2;SDS_P1;SDS_P2;PMS_P1;PMS_P2;Temp;Humidity;BMP_temperature;BMP_pressure;BME280_temperature;BME280_humidity;BME280_pressure;Samples;Min_cycle;Max_cycle;Signal;HPM_P1;HPM_P2
2021/07/27 00:00:03;;;;;;;13.47;4.87;;;19.90;99.90;;;;;;5020916;28;20477;-85
2021/07/27 00:02:30;;;;;;;13.50;4.20;;;19.90;99.90;;;;;;5015546;28;20514;-85
2021/07/27 00:04:59;;;;;;;11.80;3.83;;;20.00;99.90;;;;;;5002139;28;20514;-86
2021/07/27 00:07:25;;;;;;;12.77;4.60;;;20.00;99.90;;;;;;5001320;28;20442;-84
2021/07/27 00:09:52;;;;;;;12.47;3.90;;;19.90;99.90;;;;;;4999952;28;20502;-85
2021/07/27 00:12:19;;;;;;;11.50;3.67;;;19.90;99.90;;;;;;5001441;28;20462;-85
2021/07/27 00:14:46;;;;;;;13.20;4.30;;;19.90;99.90;;;;;;5000407;28;20505;-84
2021/07/27 00:17:13;;;;;;;12.53;4.60;;;19.90;99.90;;;;;;5001230;28;20469;-85
2021/07/27 00:19:40;;;;;;;11.90;3.60;;;19.90;99.90;;;;;;5012459;28;20488;-84
2021/07/27 00:22:08;;;;;;;13.47;4.23;;;19.90;99.90;;;;;;5021063;28;20540;-85
2021/07/27 00:24:35;;;;;;;11.40;4.00;;;19.90;99.90;;;;;;5020575;28;20452;-84
2021/07/27 00:27:02;;;;;;;12.70;4.67;;;20.00;99.90;;;;;;5019862;28;20453;-85
2021/07/27 00:29:29;;;;;;;13.10;3.87;;;19.90;99.90;;;;;;5019099;28;20545;-85
2021/07/27 00:31:55;;;;;;;12.80;4.20;;;19.90;99.90;;;;;;5018961;28;20548;-85
2021/07/27 00:34:22;;;;;;;12.17;3.53;;;19.90;99.90;;;;;;5018367;28;20493;-85
2021/07/27 00:36:49;;;;;;;11.70;3.90;;;19.90;99.90;;;;;;5000427;28;20478;-85
2021/07/27 00:39:17;;;;;;;11.20;3.53;;;19.80;99.90;;;;;;4998922;28;20493;-85
2021/07/27 00:41:44;;;;;;;12.53;4.70;;;19.90;99.90;;;;;;5000616;28;20469;-85
2021/07/27 00:44:11;;;;;;;11.23;3.80;;;19.80;99.90;;;;;;5000019;28;20446;-85
2021/07/27 00:46:38;;;;;;;12.70;4.27;;;19.80;99.90;;;;;;5000355;28;21061;-85
2021/07/27 00:49:05;;;;;;;11.00;3.90;;;19.80;99.90;;;;;;4998983;28;20485;-85
2021/07/27 00:51:32;;;;;;;11.53;3.73;;;19.80;99.90;;;;;;5000151;28;20490;-85
2021/07/27 00:54:00;;;;;;;12.60;3.70;;;19.80;99.90;;;;;;5005611;28;20490;-86
2021/07/27 00:56:29;;;;;;;11.97;4.17;;;19.80;99.90;;;;;;5003426;28;20443;-84
2021/07/27 00:58:56;;;;;;;11.97;4.10;;;19.70;99.90;;;;;;4996829;28;21037;-84
2021/07/27 01:01:23;;;;;;;12.50;4.00;;;19.80;99.90;;;;;;4996765;28;20488;-84
2021/07/27 01:03:49;;;;;;;12.00;3.93;;;19.70;99.90;;;;;;4997964;28;20533;-84
2021/07/27 01:06:16;;;;;;;11.70;4.50;;;19.70;99.90;;;;;;4997398;28;20589;-84
2021/07/27 01:08:45;;;;;;;11.63;3.77;;;19.70;99.90;;;;;;5010547;28;20473;-84
2021/07/27 01:11:23;;;;;;;12.23;4.80;;;19.60;99.90;;;;;;5016277;28;20537;-83
2021/07/27 01:13:51;;;;;;;10.97;3.60;;;19.60;99.90;;;;;;5013856;28;20500;-84
2021/07/27 01:16:19;;;;;;;12.57;4.67;;;19.70;99.90;;;;;;5013627;28;20833;-84
2021/07/27 01:18:55;;;;;;;12.73;4.30;;;19.60;99.90;;;;;;5011689;28;20449;-83
2021/07/27 01:38:11;;;;;;;10.97;4.43;;;19.60;99.90;;;;;;5013946;28;20421;-84
2021/07/27 01:40:47;;;;;;;12.87;5.00;;;19.60;99.90;;;;;;5014258;28;20538;-85
2021/07/27 01:43:17;;;;;;;14.00;5.87;;;19.60;99.90;;;;;;5014789;28;20466;-85
2021/07/27 01:45:44;;;;;;;12.17;5.60;;;19.60;99.90;;;;;;5013742;28;20434;-85
2021/07/27 01:48:11;;;;;;;12.43;6.03;;;19.60;99.90;;;;;;5003608;28;20457;-84
2021/07/27 01:50:39;;;;;;;14.03;5.20;;;19.50;99.90;;;;;;4997410;28;20479;-85
2021/07/27 01:53:25;;;;;;;12.60;5.70;;;19.60;99.90;;;;;;4999500;28;20450;-85
2021/07/27 01:55:54;;;;;;;11.13;5.43;;;19.50;99.90;;;;;;5000501;28;20497;-85
2021/07/27 01:58:21;;;;;;;11.37;5.27;;;19.60;99.90;;;;;;5000721;28;20464;-85
2021/07/27 02:00:47;;;;;;;11.23;5.50;;;19.60;99.90;;;;;;5008969;28;20485;-86
2021/07/27 02:03:15;;;;;;;12.97;5.40;;;19.50;99.90;;;;;;5018713;28;20845;-85
2021/07/27 02:05:42;;;;;;;11.93;6.13;;;19.60;99.90;;;;;;5021741;28;20461;-85
2021/07/27 02:08:09;;;;;;;11.10;5.70;;;19.60;99.90;;;;;;5023000;28;20464;-84
2021/07/27 02:10:37;;;;;;;18.10;8.70;;;19.60;99.90;;;;;;5014882;28;20543;-85
2021/07/27 02:13:12;;;;;;;14.17;7.10;;;19.50;99.90;;;;;;5002018;28;20450;-85
2021/07/27 02:15:40;;;;;;;12.77;6.70;;;19.60;99.90;;;;;;4998623;28;20952;-85
2021/07/27 02:18:07;;;;;;;19.70;12.40;;;19.60;99.90;;;;;;4996979;28;20987;-84
2021/07/27 02:20:35;;;;;;;27.10;17.07;;;19.40;99.90;;;;;;5003491;28;20564;-86
2021/07/27 02:23:04;;;;;;;30.17;18.30;;;19.30;99.90;;;;;;4998683;28;20832;-85
2021/07/27 02:25:31;;;;;;;32.10;21.20;;;19.40;99.90;;;;;;4998220;28;20474;-86
2021/07/27 02:27:58;;;;;;;33.50;22.50;;;19.40;99.90;;;;;;4997007;28;20440;-86
2021/07/27 02:30:30;;;;;;;30.40;20.70;;;19.30;99.90;;;;;;5002100;28;21041;-85
2021/07/27 02:32:57;;;;;;;29.43;18.80;;;19.40;99.90;;;;;;5002095;28;20485;-85
2021/07/27 02:35:27;;;;;;;30.60;19.70;;;19.30;99.90;;;;;;5000911;28;20569;-85
2021/07/27 02:37:55;;;;;;;29.23;18.87;;;19.40;99.90;;;;;;5002126;28;20481;-84
2021/07/27 02:40:22;;;;;;;25.33;16.80;;;19.30;99.90;;;;;;5005739;28;20543;-84
2021/07/27 02:42:49;;;;;;;26.30;16.97;;;19.30;99.90;;;;;;5019679;28;20463;-85
2021/07/27 02:45:20;;;;;;;24.60;15.93;;;19.20;99.90;;;;;;5021433;28;20533;-85
2021/07/27 02:47:48;;;;;;;24.33;16.43;;;19.20;99.90;;;;;;5020396;28;20468;-85
2021/07/27 02:50:15;;;;;;;27.17;17.33;;;19.20;99.90;;;;;;5018878;28;20901;-85
2021/07/27 02:52:41;;;;;;;24.00;15.90;;;19.10;99.90;;;;;;5019041;28;20475;-84
2021/07/27 02:55:09;;;;;;;24.20;16.27;;;19.20;99.90;;;;;;5018408;28;20876;-85
2021/07/27 02:57:37;;;;;;;25.83;17.37;;;19.10;99.90;;;;;;5019219;28;20837;-85
2021/07/27 03:00:04;;;;;;;21.77;15.67;;;19.10;99.90;;;;;;5018606;28;20487;-85
2021/07/27 03:02:33;;;;;;;24.17;17.00;;;19.00;99.90;;;;;;5021635;28;20464;-84
2021/07/27 03:05:01;;;;;;;27.43;18.80;;;19.10;99.90;;;;;;5020275;28;20521;-85
2021/07/27 03:07:35;;;;;;;23.87;15.73;;;19.00;99.90;;;;;;5020455;28;20470;-85
2021/07/27 03:10:20;;;;;;;33.77;19.17;;;19.10;99.90;;;;;;5015089;28;20474;-86
2021/07/27 03:12:48;;;;;;;26.40;17.07;;;19.00;99.90;;;;;;5000374;28;20465;-87
2021/07/27 03:15:15;;;;;;;32.70;19.93;;;19.00;99.90;;;;;;5000338;28;21059;-85
2021/07/27 03:17:42;;;;;;;27.67;18.50;;;18.90;99.90;;;;;;5001079;28;20458;-84
2021/07/27 03:20:13;;;;;;;28.10;18.10;;;18.90;99.90;;;;;;5029502;23;20493;-85
2021/07/27 03:22:41;;;;;;;26.40;16.80;;;18.90;99.90;;;;;;5002396;28;20454;-87
2021/07/27 03:25:09;;;;;;;24.77;16.03;;;18.90;99.90;;;;;;4979146;28;20447;-85
2021/07/27 03:27:36;;;;;;;28.67;17.73;;;19.00;99.90;;;;;;4975409;28;20458;-85
2021/07/27 03:30:04;;;;;;;24.47;15.63;;;19.00;99.90;;;;;;4978243;28;20481;-85
2021/07/27 03:32:30;;;;;;;24.53;16.67;;;19.00;99.90;;;;;;4997949;28;20442;-85
2021/07/27 03:34:58;;;;;;;23.57;15.83;;;19.00;99.90;;;;;;4995621;28;20501;-85
2021/07/27 03:37:26;;;;;;;25.50;15.73;;;19.00;99.90;;;;;;4995980;28;20459;-85
2021/07/27 03:39:53;;;;;;;25.50;15.57;;;19.00;99.90;;;;;;4995778;28;20503;-85
2021/07/27 03:42:20;;;;;;;23.80;15.30;;;19.00;99.90;;;;;;4997608;28;20450;-85
2021/07/27 03:44:46;;;;;;;22.27;14.90;;;19.00;99.90;;;;;;4997149;28;20446;-85
2021/07/27 03:47:13;;;;;;;21.50;14.00;;;19.00;99.90;;;;;;4997866;28;20952;-85
2021/07/27 03:49:40;;;;;;;22.60;13.70;;;19.00;99.90;;;;;;4995067;28;20473;-86
2021/07/27 03:52:07;;;;;;;22.73;14.40;;;19.00;99.90;;;;;;4995962;28;20465;-85
2021/07/27 03:54:35;;;;;;;21.57;14.40;;;19.00;99.90;;;;;;4999578;28;21020;-84
2021/07/27 03:57:03;;;;;;;24.17;15.03;;;19.10;99.90;;;;;;4997242;28;20450;-86
2021/07/27 03:59:31;;;;;;;24.80;14.00;;;19.10;99.90;;;;;;4993779;28;21118;-86
2021/07/27 04:01:58;;;;;;;25.13;14.90;;;19.10;99.90;;;;;;4994816;28;20457;-86
2021/07/27 04:04:25;;;;;;;21.67;12.80;;;19.10;99.90;;;;;;5001109;28;20965;-85
2021/07/27 04:06:53;;;;;;;23.93;14.23;;;19.20;99.90;;;;;;5003636;28;20458;-85
2021/07/27 04:09:20;;;;;;;21.30;14.00;;;19.10;99.90;;;;;;5003173;28;20965;-85
2021/07/27 04:11:49;;;;;;;21.30;12.87;;;19.10;99.90;;;;;;5005086;28;20451;-85
2021/07/27 04:14:15;;;;;;;20.70;13.67;;;19.10;99.90;;;;;;5002794;28;20488;-85
2021/07/27 04:16:42;;;;;;;20.87;13.47;;;19.00;99.90;;;;;;5004854;28;20899;-86
2021/07/27 04:19:09;;;;;;;23.60;15.30;;;19.00;99.90;;;;;;5003116;28;20481;-85
2021/07/27 04:21:36;;;;;;;22.77;15.53;;;19.00;99.90;;;;;;5002623;28;20523;-85
2021/07/27 04:24:03;;;;;;;23.70;15.30;;;18.80;99.90;;;;;;5005819;28;20479;-85
2021/07/27 04:26:30;;;;;;;24.70;15.60;;;18.80;99.90;;;;;;5016050;28;20465;-86
2021/07/27 04:28:59;;;;;;;22.37;14.00;;;18.90;99.90;;;;;;5016630;28;20505;-85
2021/07/27 04:31:25;;;;;;;24.33;13.83;;;19.00;99.90;;;;;;5018034;28;20500;-86
2021/07/27 04:33:52;;;;;;;20.80;14.37;;;19.00;99.90;;;;;;5002690;28;20439;-81
2021/07/27 04:36:19;;;;;;;22.60;15.90;;;19.00;99.90;;;;;;4998573;28;20529;-81
2021/07/27 04:38:46;;;;;;;23.07;14.90;;;19.00;99.90;;;;;;4997819;28;20458;-83
2021/07/27 04:41:23;;;;;;;;;;;;;;;;;;;;;
2021/07/27 04:44:13;;;;;;;20.70;14.43;;;19.20;99.90;;;;;;4995641;28;20457;-83
2021/07/27 04:46:41;;;;;;;20.20;13.30;;;19.30;99.90;;;;;;4995973;28;20844;-85
2021/07/27 04:49:08;;;;;;;19.60;13.50;;;19.30;99.90;;;;;;4995905;28;20461;-85
2021/07/27 04:51:37;;;;;;;26.23;15.13;;;19.40;99.90;;;;;;4996120;28;20474;-85
2021/07/27 04:54:05;;;;;;;23.87;15.50;;;19.40;99.90;;;;;;4995513;28;20957;-85
2021/07/27 04:56:32;;;;;;;21.57;14.10;;;19.40;99.90;;;;;;4996202;28;21010;-85
2021/07/27 04:58:58;;;;;;;20.50;13.13;;;19.50;99.90;;;;;;4994002;28;20482;-85
2021/07/27 05:01:25;;;;;;;19.77;13.30;;;19.50;99.90;;;;;;4994082;28;20482;-85
2021/07/27 05:03:53;;;;;;;26.40;14.27;;;19.60;99.90;;;;;;4994336;28;20477;-85
2021/07/27 05:06:24;;;;;;;20.87;14.57;;;19.60;99.90;;;;;;4994817;28;20454;-85
2021/07/27 05:08:51;;;;;;;22.13;16.80;;;19.70;99.90;;;;;;4996722;28;20541;-85
2021/07/27 05:11:17;;;;;;;22.50;14.93;;;19.70;99.90;;;;;;4996334;28;20489;-85
2021/07/27 05:13:44;;;;;;;22.93;15.30;;;19.70;99.90;;;;;;4995389;28;20861;-85
2021/07/27 05:16:18;;;;;;;23.10;15.70;;;19.80;99.90;;;;;;4996512;28;20494;-82
2021/07/27 05:18:52;;;;;;;27.37;15.37;;;19.90;99.90;;;;;;4998366;28;20454;-83
2021/07/27 05:21:35;;;;;;;24.60;17.37;;;19.90;99.90;;;;;;4996261;28;20497;-83
2021/07/27 05:24:02;;;;;;;29.00;19.37;;;19.90;99.90;;;;;;4996825;28;20455;-85
2021/07/27 05:26:31;;;;;;;26.23;18.40;;;19.90;99.90;;;;;;4997641;28;20450;-85
2021/07/27 05:28:58;;;;;;;21.17;15.93;;;20.00;99.90;;;;;;5004638;28;20462;-85
2021/07/27 05:31:25;;;;;;;23.73;17.13;;;20.10;99.90;;;;;;4999944;28;20475;-85
2021/07/27 05:33:52;;;;;;;26.73;17.70;;;20.10;99.90;;;;;;4994498;28;20442;-85
2021/07/27 05:36:19;;;;;;;24.50;17.13;;;20.00;99.90;;;;;;4997826;28;20888;-84
2021/07/27 05:38:47;;;;;;;24.50;16.30;;;20.00;99.90;;;;;;4996973;28;20447;-84
2021/07/27 05:41:13;;;;;;;24.80;15.70;;;20.00;99.90;;;;;;4999129;28;20474;-84
2021/07/27 05:43:40;;;;;;;29.80;18.23;;;20.00;99.90;;;;;;4999143;28;20458;-85
2021/07/27 05:46:07;;;;;;;22.60;16.73;;;19.90;99.90;;;;;;4999662;28;20442;-84
2021/07/27 05:48:34;;;;;;;25.50;18.33;;;19.90;99.90;;;;;;4999535;28;20454;-84
2021/07/27 05:51:03;;;;;;;28.63;16.83;;;19.90;99.90;;;;;;4990405;28;20483;-85
2021/07/27 05:53:29;;;;;;;26.03;17.53;;;19.90;99.90;;;;;;5000366;28;20454;-86
2021/07/27 05:56:01;;;;;;;26.33;19.20;;;19.90;99.90;;;;;;4992105;28;20548;-83
2021/07/27 05:58:28;;;;;;;24.50;18.47;;;19.90;99.90;;;;;;5004298;28;20483;-88
2021/07/27 06:00:54;;;;;;;24.23;16.00;;;19.80;99.90;;;;;;5012993;28;20470;-84
2021/07/27 06:03:21;;;;;;;24.27;16.37;;;19.90;99.90;;;;;;5013448;28;20478;-85
2021/07/27 06:05:51;;;;;;;25.40;16.23;;;20.10;99.90;;;;;;5014679;28;20476;-85
2021/07/27 06:08:18;;;;;;;23.80;17.53;;;20.10;99.90;;;;;;5004144;28;20534;-85
2021/07/27 06:10:45;;;;;;;25.93;16.93;;;20.10;99.90;;;;;;5004276;28;20498;-86
2021/07/27 06:13:13;;;;;;;22.17;15.40;;;20.00;99.90;;;;;;5005626;28;20518;-84
2021/07/27 06:15:40;;;;;;;19.07;14.00;;;20.10;99.90;;;;;;5007371;28;20583;-85
2021/07/27 06:18:07;;;;;;;26.00;14.63;;;20.30;99.90;;;;;;5008824;28;20502;-85
2021/07/27 06:20:33;;;;;;;21.20;15.47;;;20.40;99.90;;;;;;5003920;28;20509;-85
2021/07/27 06:23:00;;;;;;;24.27;15.30;;;20.40;99.90;;;;;;4996017;28;20522;-85
2021/07/27 06:25:27;;;;;;;21.03;13.70;;;20.50;99.90;;;;;;4985995;28;20462;-84
2021/07/27 06:27:54;;;;;;;19.87;14.60;;;20.50;99.90;;;;;;4988449;28;20996;-85
2021/07/27 06:30:23;;;;;;;22.50;15.07;;;20.50;99.90;;;;;;5003112;28;20534;-85
2021/07/27 06:32:49;;;;;;;23.10;13.43;;;20.40;99.90;;;;;;5003478;28;20975;-85
2021/07/27 06:35:17;;;;;;;19.63;12.20;;;20.60;99.90;;;;;;5004689;28;20492;-86
2021/07/27 06:37:43;;;;;;;20.43;12.17;;;20.70;99.90;;;;;;5005387;28;20457;-86
2021/07/27 06:40:11;;;;;;;20.50;13.10;;;20.80;99.90;;;;;;5003923;28;20466;-84
2021/07/27 06:42:39;;;;;;;19.50;10.20;;;20.90;99.90;;;;;;5004227;28;20454;-84
2021/07/27 06:45:07;;;;;;;20.87;12.67;;;20.90;99.90;;;;;;5001517;28;20455;-84
2021/07/27 06:47:38;;;;;;;16.87;10.00;;;20.90;99.90;;;;;;5002234;28;20477;-84
2021/07/27 06:50:06;;;;;;;17.17;10.00;;;21.20;99.90;;;;;;5002011;28;20559;-85
2021/07/27 06:52:33;;;;;;;17.53;10.27;;;21.30;99.90;;;;;;5002457;28;20454;-84
2021/07/27 06:55:00;;;;;;;22.47;11.53;;;21.30;99.90;;;;;;5002068;28;20493;-84
2021/07/27 06:57:27;;;;;;;18.20;11.20;;;21.40;99.90;;;;;;5003417;28;20555;-84
2021/07/27 06:59:54;;;;;;;18.83;11.23;;;21.60;99.90;;;;;;5002734;28;20493;-85
2021/07/27 07:02:23;;;;;;;22.30;12.80;;;21.60;99.90;;;;;;5003540;28;20514;-85
2021/07/27 07:04:52;;;;;;;20.47;12.00;;;21.70;99.90;;;;;;5004416;28;20455;-84
2021/07/27 07:07:19;;;;;;;17.80;11.30;;;21.60;99.90;;;;;;5004635;28;20486;-86
2021/07/27 07:09:46;;;;;;;20.77;12.43;;;21.70;99.90;;;;;;5001793;28;20486;-85
2021/07/27 07:12:13;;;;;;;21.90;12.80;;;21.60;99.90;;;;;;5003065;28;20459;-84
2021/07/27 07:14:40;;;;;;;22.60;15.00;;;21.50;99.90;;;;;;5001276;28;20463;-84
2021/07/27 07:17:07;;;;;;;21.23;13.40;;;21.40;99.90;;;;;;5002669;28;20910;-84
2021/07/27 07:19:34;;;;;;;21.23;13.70;;;21.50;99.90;;;;;;5002389;28;20839;-85
2021/07/27 07:22:02;;;;;;;21.70;12.77;;;21.60;99.90;;;;;;5001263;28;20546;-85
2021/07/27 07:24:29;;;;;;;20.20;13.50;;;21.40;99.90;;;;;;5004422;28;21020;-84
2021/07/27 07:26:56;;;;;;;20.97;12.67;;;21.40;99.90;;;;;;5002507;28;20537;-85
2021/07/27 07:29:23;;;;;;;17.03;11.33;;;21.50;99.90;;;;;;5001492;28;20530;-84
2021/07/27 07:31:50;;;;;;;17.57;11.17;;;21.60;99.90;;;;;;5002851;28;20451;-85
2021/07/27 07:34:16;;;;;;;21.70;10.60;;;21.70;99.90;;;;;;5001208;28;20455;-85
2021/07/27 07:36:43;;;;;;;19.67;12.10;;;21.70;99.90;;;;;;5003505;28;20541;-85
2021/07/27 07:39:11;;;;;;;21.40;11.97;;;21.80;99.90;;;;;;5000835;28;20459;-84
2021/07/27 07:41:38;;;;;;;21.37;11.87;;;21.90;99.90;;;;;;5001809;28;20504;-84
2021/07/27 07:44:05;;;;;;;20.60;12.30;;;22.00;99.90;;;;;;5001661;28;20829;-84
2021/07/27 07:46:32;;;;;;;20.37;12.60;;;22.00;99.90;;;;;;5001280;28;20462;-84
2021/07/27 07:48:59;;;;;;;24.30;11.80;;;22.00;99.90;;;;;;5019069;28;20434;-84
2021/07/27 07:51:26;;;;;;;19.30;10.80;;;22.00;99.90;;;;;;5009107;28;20505;-85
2021/07/27 07:53:53;;;;;;;21.80;11.83;;;22.10;99.90;;;;;;5001381;28;20501;-84
2021/07/27 07:56:21;;;;;;;25.03;10.07;;;22.10;99.90;;;;;;5003634;28;20482;-84
2021/07/27 07:58:48;;;;;;;20.63;10.87;;;22.20;99.90;;;;;;5002036;28;20455;-84
2021/07/27 08:01:15;;;;;;;21.30;10.93;;;22.50;99.90;;;;;;5003022;28;20493;-85
2021/07/27 08:03:42;;;;;;;20.30;9.13;;;22.60;99.90;;;;;;5002949;28;20542;-84
2021/07/27 08:06:09;;;;;;;19.93;10.63;;;22.60;99.90;;;;;;5002141;28;20446;-84
2021/07/27 08:08:38;;;;;;;22.20;9.90;;;22.60;99.90;;;;;;5001807;28;20469;-84
2021/07/27 08:11:06;;;;;;;20.90;10.03;;;22.60;99.90;;;;;;5002506;28;20577;-84
2021/07/27 08:13:34;;;;;;;17.90;8.63;;;22.70;99.90;;;;;;5000190;28;20450;-85
2021/07/27 08:16:01;;;;;;;20.87;10.43;;;22.70;99.90;;;;;;5001616;28;20498;-84
2021/07/27 08:18:28;;;;;;;19.77;9.50;;;22.50;99.90;;;;;;5001616;28;20465;-83
2021/07/27 08:20:54;;;;;;;21.27;10.50;;;22.50;99.90;;;;;;5017539;28;20484;-85
2021/07/27 08:23:21;;;;;;;19.43;9.00;;;22.60;99.90;;;;;;5021349;28;20449;-84
2021/07/27 08:25:48;;;;;;;22.47;9.00;;;22.60;99.90;;;;;;5022863;28;20477;-85
2021/07/27 08:28:15;;;;;;;20.80;9.17;;;22.70;99.90;;;;;;5015794;28;20465;-85
2021/07/27 08:30:43;;;;;;;20.20;9.00;;;22.80;99.90;;;;;;4998664;28;20524;-84
2021/07/27 08:33:10;;;;;;;21.30;10.23;;;23.00;99.90;;;;;;4999323;28;20465;-85
2021/07/27 08:35:37;;;;;;;21.27;9.83;;;23.00;99.90;;;;;;4998759;28;20557;-84
2021/07/27 08:38:04;;;;;;;21.30;8.57;;;23.10;99.90;;;;;;5000063;28;20475;-85
2021/07/27 08:40:34;;;;;;;21.77;8.73;;;23.10;99.90;;;;;;5000310;28;20480;-84
2021/07/27 08:43:02;;;;;;;20.83;9.70;;;22.90;99.90;;;;;;5001650;28;20984;-84
2021/07/27 08:45:29;;;;;;;18.63;8.30;;;23.10;99.90;;;;;;5011825;28;20459;-84
2021/07/27 08:47:58;;;;;;;17.00;7.20;;;23.30;99.90;;;;;;5013899;28;20510;-84
2021/07/27 08:50:26;;;;;;;17.00;7.57;;;23.50;99.90;;;;;;5004484;28;20562;-84
2021/07/27 08:52:53;;;;;;;20.30;8.10;;;23.80;99.90;;;;;;4997598;28;20458;-84
2021/07/27 08:55:20;;;;;;;21.77;8.23;;;24.10;99.90;;;;;;4997150;28;20971;-84
2021/07/27 08:57:54;;;;;;;18.50;7.90;;;24.30;99.90;;;;;;4995818;28;20986;-84
2021/07/27 09:00:21;;;;;;;18.60;7.60;;;24.40;99.90;;;;;;4997528;28;20485;-84
2021/07/27 09:02:48;;;;;;;20.63;7.43;;;24.40;99.90;;;;;;4997052;28;20454;-85
2021/07/27 09:05:16;;;;;;;20.97;8.00;;;24.40;99.90;;;;;;4996940;28;20462;-85
2021/07/27 09:07:43;;;;;;;22.80;8.10;;;24.60;99.90;;;;;;4998062;28;20920;-84
2021/07/27 09:10:18;;;;;;;18.50;7.10;;;24.50;99.90;;;;;;5002798;28;20474;-83
2021/07/27 09:12:56;;;;;;;22.50;9.37;;;24.50;99.90;;;;;;5001912;28;20450;-84
2021/07/27 09:15:25;;;;;;;20.90;8.30;;;24.20;99.90;;;;;;5004419;28;20529;-83
2021/07/27 09:17:56;;;;;;;21.87;8.87;;;24.40;99.90;;;;;;4997014;28;20975;-84
2021/07/27 09:22:53;;;;;;;18.30;7.20;;;24.40;99.90;;;;;;5021761;23;20507;-85
2021/07/27 09:25:26;;;;;;;22.43;7.50;;;24.40;99.90;;;;;;5001169;28;20541;-84
2021/07/27 09:28:07;;;;;;;19.73;7.77;;;24.10;99.90;;;;;;5000727;28;20450;-85
2021/07/27 09:30:36;;;;;;;18.03;7.30;;;24.20;99.90;;;;;;4979336;28;20527;-85
2021/07/27 09:33:03;;;;;;;21.60;7.73;;;24.50;99.90;;;;;;4982398;28;20518;-84
2021/07/27 09:35:30;;;;;;;18.40;7.00;;;24.20;99.90;;;;;;4981436;28;20444;-85
2021/07/27 09:38:13;;;;;;;17.40;7.30;;;24.60;99.90;;;;;;4984008;28;20469;-85
2021/07/27 09:40:49;;;;;;;21.57;7.53;;;25.10;99.90;;;;;;4984475;28;20454;-85
2021/07/27 09:43:17;;;;;;;21.27;7.63;;;25.00;99.90;;;;;;4984934;28;20469;-85
2021/07/27 09:45:48;;;;;;;19.33;7.07;;;25.40;99.90;;;;;;4998284;28;20454;-84
2021/07/27 09:48:20;;;;;;;22.53;7.00;;;25.60;99.90;;;;;;4989389;28;20463;-84
2021/07/27 09:50:48;;;;;;;21.10;7.33;;;25.20;99.90;;;;;;4989026;28;20467;-84
2021/07/27 09:53:17;;;;;;;19.63;6.47;;;25.40;99.90;;;;;;4996489;28;20965;-85
2021/07/27 09:55:44;;;;;;;20.60;7.07;;;25.40;99.90;;;;;;4993503;28;20447;-84
2021/07/27 09:58:11;;;;;;;24.17;7.80;;;25.40;99.90;;;;;;5004070;28;20466;-84
2021/07/27 10:00:48;;;;;;;22.80;7.63;;;25.80;99.90;;;;;;4996643;28;20965;-84
2021/07/27 10:03:20;;;;;;;23.80;7.70;;;26.00;99.90;;;;;;5000317;28;20537;-85
2021/07/27 10:05:53;;;;;;;23.80;8.23;;;25.70;99.90;;;;;;5000508;28;20455;-84
2021/07/27 10:08:29;;;;;;;25.73;8.70;;;25.40;99.90;;;;;;4983969;28;20463;-83
2021/07/27 10:11:07;;;;;;;19.90;7.63;;;25.70;99.90;;;;;;4984399;28;20485;-85
2021/07/27 10:13:35;;;;;;;21.50;8.37;;;25.70;99.90;;;;;;4985010;28;20466;-83
2021/07/27 10:16:03;;;;;;;21.87;7.90;;;25.20;99.90;;;;;;4997534;28;20493;-84
2021/07/27 10:18:32;;;;;;;27.73;7.83;;;25.20;99.90;;;;;;4992525;28;20458;-84
2021/07/27 10:21:23;;;;;;;42.50;9.40;;;25.70;99.90;;;;;;4998739;28;20479;-84
2021/07/27 10:23:54;;;;;;;38.03;7.83;;;26.30;99.90;;;;;;4991384;28;20800;-84
2021/07/27 10:26:27;;;;;;;37.87;7.60;;;26.90;99.90;;;;;;4995807;28;20447;-85
2021/07/27 10:28:55;;;;;;;42.63;8.47;;;26.90;99.90;;;;;;4989213;28;20466;-85
2021/07/27 10:31:32;;;;;;;40.87;9.77;;;26.70;99.90;;;;;;5002114;28;20458;-84
2021/07/27 10:33:58;;;;;;;40.80;8.00;;;26.50;99.90;;;;;;5001167;28;20519;-85
2021/07/27 10:36:27;;;;;;;41.40;7.63;;;26.80;99.90;;;;;;4985304;28;20550;-85
2021/07/27 10:39:06;;;;;;;39.63;8.10;;;27.00;99.90;;;;;;4989716;28;20455;-85
2021/07/27 10:41:37;;;;;;;43.90;7.67;;;27.00;99.90;;;;;;4991829;28;20565;-84
2021/07/27 10:44:11;;;;;;;37.27;7.17;;;26.90;99.90;;;;;;4997061;28;20454;-85
2021/07/27 10:46:40;;;;;;;46.47;11.63;;;26.80;99.90;;;;;;4995490;28;20453;-85
2021/07/27 10:49:16;;;;;;;41.70;9.20;;;26.50;99.90;;;;;;4991426;28;20479;-83
2021/07/27 10:51:44;;;;;;;50.03;11.57;;;26.10;99.90;;;;;;4983833;28;20479;-84
2021/07/27 10:54:13;;;;;;;50.20;9.23;;;26.20;99.90;;;;;;4982315;28;20451;-85
2021/07/27 10:56:41;;;;;;;50.80;9.37;;;26.30;99.90;;;;;;4983468;28;20530;-84
2021/07/27 10:59:08;;;;;;;46.17;8.00;;;26.40;99.90;;;;;;4981453;28;20455;-85
2021/07/27 11:01:35;;;;;;;50.73;8.07;;;26.60;99.90;;;;;;4982376;28;20559;-84
2021/07/27 11:04:10;;;;;;;68.10;44.80;;;26.60;99.90;;;;;;4984757;28;20458;-83
2021/07/27 11:06:37;;;;;;;56.47;13.67;;;26.70;99.90;;;;;;4986814;28;20453;-83
2021/07/27 11:09:05;;;;;;;54.27;12.17;;;26.40;99.90;;;;;;4997679;28;20463;-83
2021/07/27 11:11:44;;;;;;;49.97;9.97;;;26.40;99.90;;;;;;5005675;28;20533;-83
2021/07/27 11:14:11;;;;;;;53.10;11.73;;;26.20;99.90;;;;;;4992931;28;21011;-82
2021/07/27 11:16:42;;;;;;;50.43;11.33;;;26.00;99.90;;;;;;5000577;28;20577;-82
2021/07/27 11:19:11;;;;;;;51.90;12.83;;;25.90;99.90;;;;;;5005680;28;20473;-83
2021/07/27 11:21:40;;;;;;;53.00;15.20;;;25.70;99.90;;;;;;5004641;28;20537;-82
2021/07/27 11:24:08;;;;;;;51.57;10.50;;;25.30;99.90;;;;;;4992967;28;20617;-83
2021/07/27 11:26:39;;;;;;;50.87;11.10;;;25.10;99.90;;;;;;5004136;28;20457;-83
2021/07/27 11:29:11;;;;;;;49.63;13.47;;;25.20;99.90;;;;;;4994949;28;20460;-83
2021/07/27 11:31:46;;;;;;;48.47;9.57;;;24.90;99.90;;;;;;4986350;28;20559;-83
2021/07/27 11:34:12;;;;;;;51.97;10.63;;;24.90;99.90;;;;;;5004199;28;20450;-83
2021/07/27 11:36:39;;;;;;;52.17;12.73;;;24.80;99.90;;;;;;5004626;28;20590;-83
2021/07/27 11:39:07;;;;;;;53.60;13.03;;;24.70;99.90;;;;;;5002650;28;20538;-82
2021/07/27 11:41:34;;;;;;;54.90;15.07;;;24.40;99.90;;;;;;4991241;28;20898;-83
2021/07/27 11:44:04;;;;;;;74.50;41.47;;;24.30;99.90;;;;;;4987900;28;20513;-82
2021/07/27 11:46:34;;;;;;;55.83;15.97;;;23.90;99.90;;;;;;4992933;28;20494;-83
2021/07/27 11:49:01;;;;;;;48.90;22.27;;;23.70;99.90;;;;;;4989727;28;20455;-83
2021/07/27 11:51:31;;;;;;;47.37;25.20;;;23.30;99.90;;;;;;4989419;28;20503;-87
2021/07/27 11:53:58;;;;;;;35.57;19.80;;;22.80;99.90;;;;;;4976696;28;20531;-84
2021/07/27 11:56:25;;;;;;;36.77;19.77;;;22.50;99.90;;;;;;4976477;28;20527;-87
2021/07/27 11:59:02;;;;;;;31.90;15.97;;;21.80;99.90;;;;;;4975710;28;20459;-85
2021/07/27 12:01:40;;;;;;;28.30;12.37;;;21.20;99.90;;;;;;4979985;28;20482;-86
2021/07/27 12:04:07;;;;;;;24.10;13.03;;;20.50;99.90;;;;;;4977075;28;20494;-86
2021/07/27 12:06:46;;;;;;;21.33;10.83;;;20.20;99.90;;;;;;4979891;28;20452;-86
2021/07/27 12:09:13;;;;;;;20.20;10.43;;;20.00;99.90;;;;;;4976224;28;20812;-87
2021/07/27 12:11:41;;;;;;;18.03;9.20;;;19.70;99.90;;;;;;4975481;28;20558;-88
2021/07/27 12:14:10;;;;;;;16.73;7.60;;;19.80;99.90;;;;;;4975415;28;20463;-86
2021/07/27 12:16:37;;;;;;;15.80;9.13;;;19.70;99.90;;;;;;4975016;28;20452;-87
2021/07/27 12:19:09;;;;;;;18.70;10.73;;;19.80;99.90;;;;;;4970659;28;20459;-88
2021/07/27 12:21:39;;;;;;;22.57;14.50;;;20.00;99.90;;;;;;4974237;28;20852;-88
2021/07/27 12:24:09;;;;;;;20.27;14.53;;;20.50;99.90;;;;;;4974712;28;20946;-87
2021/07/27 12:26:36;;;;;;;15.70;10.83;;;21.20;99.90;;;;;;4975735;28;20455;-86
2021/07/27 12:29:04;;;;;;;19.87;13.37;;;21.70;99.90;;;;;;4975563;28;20464;-86
2021/07/27 12:31:33;;;;;;;21.77;16.07;;;22.20;99.90;;;;;;4978483;28;20502;-85
2021/07/27 12:34:05;;;;;;;16.77;10.40;;;23.20;99.90;;;;;;4986679;28;20478;-86
2021/07/27 12:36:34;;;;;;;21.07;14.03;;;23.60;99.90;;;;;;4989722;28;20458;-86
2021/07/27 12:39:01;;;;;;;18.80;12.00;;;24.10;99.90;;;;;;4984340;28;20451;-86
2021/07/27 12:41:30;;;;;;;14.60;9.63;;;24.80;99.90;;;;;;4989260;28;20474;-84
2021/07/27 12:44:02;;;;;;;17.57;12.20;;;25.30;99.90;;;;;;4992529;28;20918;-83
2021/07/27 12:46:32;;;;;;;15.60;11.20;;;25.90;99.90;;;;;;4997456;28;20435;-85
2021/07/27 12:49:03;;;;;;;21.17;7.97;;;26.40;99.90;;;;;;4996151;28;20455;-84
2021/07/27 12:51:30;;;;;;;15.33;8.67;;;26.40;99.90;;;;;;4992365;28;20914;-82
2021/07/27 12:54:00;;;;;;;16.73;9.57;;;26.40;99.90;;;;;;4996895;28;20487;-84
2021/07/27 12:56:27;;;;;;;17.20;11.00;;;26.10;99.90;;;;;;4995907;28;20462;-86
2021/07/27 12:58:55;;;;;;;15.33;10.47;;;26.10;99.90;;;;;;4996766;28;20486;-85